Wetterdaten: Woche 30.04.07 - 06.05.07 (KW18)
Datum Zeit Temperatur Luftfeuchte Luftdruck Niederschlag Wind Richtung Sonnenschein Solar Taupunkt Windchill Windben
30.04.2007 00:00 14.4 C 77 % 1011.6 hPa 0.0 l/m 1.7 km/h (1 Bft) O 0.00 h 0 W/m 10.4 C 14.4 C 2.9 km/h (1 Bft)
30.04.2007 01:00 13.2 C 81 % 1011.2 hPa 0.0 l/m 3.0 km/h (1 Bft) O-SO 0.00 h 0 W/m 10.0 C 13.2 C 4.5 km/h (1 Bft)
30.04.2007 02:00 12.0 C 85 % 1010.9 hPa 0.0 l/m 2.0 km/h (1 Bft) O-SO 0.00 h 0 W/m 9.6 C 12.0 C 3.1 km/h (1 Bft)
30.04.2007 03:00 11.9 C 87 % 1010.4 hPa 0.0 l/m 0.7 km/h (0 Bft) O 0.00 h 0 W/m 9.7 C 11.9 C 1.8 km/h (1 Bft)
30.04.2007 04:00 11.9 C 87 % 1010.3 hPa 0.0 l/m 1.3 km/h (1 Bft) O 0.00 h 0 W/m 9.8 C 11.9 C 2.5 km/h (1 Bft)
30.04.2007 05:00 12.0 C 88 % 1010.4 hPa 0.0 l/m 2.7 km/h (1 Bft) N-NW 0.00 h 0 W/m 10.0 C 12.0 C 4.4 km/h (1 Bft)
30.04.2007 06:00 11.8 C 82 % 1010.8 hPa 0.0 l/m 0.4 km/h (0 Bft) O-NO 0.05 h 26 W/m 8.9 C 11.8 C 1.9 km/h (1 Bft)
30.04.2007 07:00 12.7 C 68 % 1011.2 hPa 0.0 l/m 1.2 km/h (1 Bft) O 0.35 h 120 W/m 7.0 C 12.7 C 2.9 km/h (1 Bft)
30.04.2007 08:00 13.6 C 64 % 1011.3 hPa 0.0 l/m 3.5 km/h (1 Bft) O-SO 1.00 h 271 W/m 6.9 C 13.6 C 6.8 km/h (2 Bft)
30.04.2007 09:00 14.7 C 60 % 1011.2 hPa 0.0 l/m 4.0 km/h (1 Bft) O-SO 1.00 h 409 W/m 7.1 C 14.7 C 7.7 km/h (2 Bft)
30.04.2007 10:00 16.2 C 56 % 1011.0 hPa 0.0 l/m 4.2 km/h (1 Bft) O-SO 1.00 h 554 W/m 7.3 C 16.2 C 7.8 km/h (2 Bft)
30.04.2007 11:00 18.3 C 50 % 1010.4 hPa 0.0 l/m 4.7 km/h (1 Bft) O-SO 1.00 h 675 W/m 7.7 C 18.3 C 8.7 km/h (2 Bft)
30.04.2007 12:00 20.0 C 45 % 1009.8 hPa 0.0 l/m 6.4 km/h (2 Bft) O-SO 1.00 h 753 W/m 7.7 C 20.0 C 12.7 km/h (3 Bft)
30.04.2007 13:00 21.1 C 42 % 1009.2 hPa 0.0 l/m 9.0 km/h (2 Bft) O-SO 1.00 h 772 W/m 7.5 C 21.1 C 15.8 km/h (3 Bft)
30.04.2007 14:00 21.9 C 40 % 1008.8 hPa 0.0 l/m 8.8 km/h (2 Bft) O-SO 1.00 h 741 W/m 7.6 C 21.9 C 15.5 km/h (3 Bft)
30.04.2007 15:00 22.4 C 39 % 1008.3 hPa 0.0 l/m 8.2 km/h (2 Bft) O-SO 0.87 h 622 W/m 7.6 C 22.4 C 14.5 km/h (3 Bft)
30.04.2007 16:00 22.3 C 38 % 1007.9 hPa 0.0 l/m 9.2 km/h (2 Bft) O-SO 1.00 h 549 W/m 7.3 C 22.3 C 15.7 km/h (3 Bft)
30.04.2007 17:00 21.5 C 41 % 1007.9 hPa 0.0 l/m 7.7 km/h (2 Bft) O-SO 0.72 h 338 W/m 7.5 C 21.5 C 14.0 km/h (3 Bft)
30.04.2007 18:00 20.7 C 43 % 1007.8 hPa 0.0 l/m 8.4 km/h (2 Bft) O-SO 0.38 h 163 W/m 7.6 C 20.7 C 15.0 km/h (3 Bft)
30.04.2007 19:00 20.0 C 43 % 1008.1 hPa 0.0 l/m 3.6 km/h (1 Bft) O-SO 0.00 h 72 W/m 7.0 C 20.0 C 8.3 km/h (2 Bft)
30.04.2007 20:00 18.9 C 43 % 1008.7 hPa 0.0 l/m 3.0 km/h (1 Bft) NO 0.03 h 13 W/m 6.1 C 18.9 C 7.0 km/h (2 Bft)
30.04.2007 21:00 17.1 C 43 % 1009.5 hPa 0.0 l/m 2.9 km/h (1 Bft) N-NO 0.00 h 0 W/m 4.3 C 17.1 C 6.1 km/h (2 Bft)
30.04.2007 22:00 15.7 C 44 % 1009.5 hPa 0.0 l/m 2.8 km/h (1 Bft) N-NO 0.00 h 0 W/m 3.3 C 15.7 C 6.0 km/h (2 Bft)
30.04.2007 23:00 14.8 C 43 % 1009.4 hPa 0.0 l/m 4.0 km/h (1 Bft) N-NO 0.00 h 0 W/m 2.4 C 14.8 C 7.7 km/h (2 Bft)
01.05.2007 00:00 14.1 C 42 % 1009.6 hPa 0.0 l/m 3.2 km/h (1 Bft) N-NO 0.00 h 0 W/m 1.3 C 14.1 C 6.5 km/h (2 Bft)
01.05.2007 01:00 13.2 C 43 % 1009.8 hPa 0.0 l/m 1.1 km/h (1 Bft) N-NO 0.00 h 0 W/m 0.9 C 13.2 C 3.1 km/h (1 Bft)
01.05.2007 02:00 12.5 C 46 % 1009.9 hPa 0.0 l/m 0.9 km/h (0 Bft) NO 0.00 h 0 W/m 1.2 C 12.5 C 2.4 km/h (1 Bft)
01.05.2007 03:00 11.6 C 49 % 1009.9 hPa 0.0 l/m 0.5 km/h (0 Bft) N-NO 0.00 h 0 W/m 1.3 C 11.6 C 1.8 km/h (1 Bft)
01.05.2007 04:00 10.6 C 54 % 1010.1 hPa 0.0 l/m 0.9 km/h (0 Bft) O-SO 0.00 h 0 W/m 1.7 C 10.6 C 1.8 km/h (1 Bft)
01.05.2007 05:00 9.3 C 60 % 1010.8 hPa 0.0 l/m 2.8 km/h (1 Bft) O 0.00 h 0 W/m 1.8 C 9.3 C 4.1 km/h (1 Bft)
01.05.2007 06:00 7.7 C 69 % 1011.2 hPa 0.0 l/m 2.3 km/h (1 Bft) SO 0.02 h 18 W/m 2.3 C 7.5 C 3.8 km/h (1 Bft)
01.05.2007 07:00 9.7 C 57 % 1011.4 hPa 0.0 l/m 1.5 km/h (1 Bft) O-SO 0.00 h 83 W/m 1.5 C 9.7 C 3.4 km/h (1 Bft)
01.05.2007 08:00 11.7 C 50 % 1011.6 hPa 0.0 l/m 2.5 km/h (1 Bft) O-SO 0.98 h 270 W/m 1.6 C 11.7 C 5.7 km/h (1 Bft)
01.05.2007 09:00 13.2 C 46 % 1011.7 hPa 0.0 l/m 3.6 km/h (1 Bft) O-SO 1.00 h 440 W/m 1.9 C 13.2 C 7.0 km/h (2 Bft)
01.05.2007 10:00 14.9 C 43 % 1011.4 hPa 0.0 l/m 4.7 km/h (1 Bft) O-SO 1.00 h 585 W/m 2.4 C 14.9 C 8.7 km/h (2 Bft)
01.05.2007 11:00 16.7 C 42 % 1011.0 hPa 0.0 l/m 3.6 km/h (1 Bft) O-SO 1.00 h 703 W/m 3.7 C 16.7 C 6.9 km/h (2 Bft)
01.05.2007 12:00 18.2 C 40 % 1010.4 hPa 0.0 l/m 7.3 km/h (2 Bft) O-SO 1.00 h 775 W/m 4.4 C 18.2 C 11.5 km/h (2 Bft)
01.05.2007 13:00 19.5 C 38 % 1009.9 hPa 0.0 l/m 8.6 km/h (2 Bft) O-SO 1.00 h 799 W/m 4.8 C 19.5 C 13.8 km/h (3 Bft)
01.05.2007 14:00 21.0 C 34 % 1009.3 hPa 0.0 l/m 6.4 km/h (2 Bft) O-SO 1.00 h 773 W/m 4.7 C 21.0 C 11.2 km/h (2 Bft)
01.05.2007 15:00 21.9 C 31 % 1008.8 hPa 0.0 l/m 6.9 km/h (2 Bft) O-SO 1.00 h 695 W/m 4.0 C 21.9 C 12.4 km/h (3 Bft)
01.05.2007 16:00 21.9 C 29 % 1008.5 hPa 0.0 l/m 8.2 km/h (2 Bft) O-SO 1.00 h 580 W/m 3.0 C 21.9 C 13.9 km/h (3 Bft)
01.05.2007 17:00 21.6 C 28 % 1008.4 hPa 0.0 l/m 6.6 km/h (2 Bft) O-SO 1.00 h 431 W/m 2.4 C 21.6 C 12.4 km/h (3 Bft)
01.05.2007 18:00 20.7 C 27 % 1008.2 hPa 0.0 l/m 8.2 km/h (2 Bft) O-SO 1.00 h 267 W/m 1.3 C 20.7 C 14.4 km/h (3 Bft)
01.05.2007 19:00 19.7 C 28 % 1008.1 hPa 0.0 l/m 4.9 km/h (1 Bft) O-SO 0.68 h 112 W/m 0.9 C 19.7 C 9.5 km/h (2 Bft)
01.05.2007 20:00 18.2 C 31 % 1008.2 hPa 0.0 l/m 2.7 km/h (1 Bft) O 0.05 h 20 W/m 1.0 C 18.2 C 6.0 km/h (2 Bft)
01.05.2007 21:00 16.6 C 37 % 1008.8 hPa 0.0 l/m 6.2 km/h (2 Bft) N-NO 0.00 h 0 W/m 1.8 C 16.6 C 12.5 km/h (3 Bft)
01.05.2007 22:00 15.4 C 39 % 1008.8 hPa 0.0 l/m 5.5 km/h (1 Bft) N-NO 0.00 h 0 W/m 1.6 C 15.4 C 11.6 km/h (2 Bft)
01.05.2007 23:00 14.8 C 41 % 1008.5 hPa 0.0 l/m 7.3 km/h (2 Bft) N-NO 0.00 h 0 W/m 1.5 C 14.8 C 14.3 km/h (3 Bft)
02.05.2007 00:00 14.2 C 43 % 1008.3 hPa 0.0 l/m 6.5 km/h (2 Bft) N-NO 0.00 h 0 W/m 1.7 C 14.2 C 12.9 km/h (3 Bft)
02.05.2007 01:00 13.3 C 47 % 1008.2 hPa 0.0 l/m 5.1 km/h (1 Bft) O 0.00 h 0 W/m 2.0 C 13.3 C 10.8 km/h (2 Bft)
02.05.2007 02:00 12.4 C 48 % 1007.9 hPa 0.0 l/m 5.0 km/h (1 Bft) NO 0.00 h 0 W/m 1.8 C 12.4 C 10.5 km/h (2 Bft)
02.05.2007 03:00 11.6 C 49 % 1007.9 hPa 0.0 l/m 4.2 km/h (1 Bft) O 0.00 h 0 W/m 1.2 C 11.6 C 8.5 km/h (2 Bft)
02.05.2007 04:00 11.0 C 49 % 1008.0 hPa 0.0 l/m 3.9 km/h (1 Bft) O 0.00 h 0 W/m 0.7 C 11.0 C 7.5 km/h (2 Bft)
02.05.2007 05:00 10.3 C 51 % 1008.0 hPa 0.0 l/m 3.4 km/h (1 Bft) O-NO 0.00 h 0 W/m 0.7 C 10.2 C 7.2 km/h (2 Bft)
02.05.2007 06:00 9.6 C 53 % 1008.0 hPa 0.0 l/m 3.2 km/h (1 Bft) N-NO 0.03 h 16 W/m 0.5 C 9.4 C 6.8 km/h (2 Bft)
02.05.2007 07:00 9.9 C 52 % 1008.2 hPa 0.0 l/m 2.7 km/h (1 Bft) O-SO 0.38 h 90 W/m 0.4 C 9.8 C 5.9 km/h (2 Bft)
02.05.2007 08:00 11.6 C 46 % 1008.2 hPa 0.0 l/m 4.5 km/h (1 Bft) NO 1.00 h 285 W/m 0.4 C 11.6 C 9.4 km/h (2 Bft)
02.05.2007 09:00 13.0 C 45 % 1008.1 hPa 0.0 l/m 5.7 km/h (1 Bft) O-SO 1.00 h 449 W/m 1.2 C 13.0 C 10.9 km/h (2 Bft)
02.05.2007 10:00 14.5 C 44 % 1007.9 hPa 0.0 l/m 9.7 km/h (2 Bft) O-SO 1.00 h 596 W/m 2.3 C 14.5 C 15.4 km/h (3 Bft)
02.05.2007 11:00 16.2 C 41 % 1007.5 hPa 0.0 l/m 9.6 km/h (2 Bft) O-SO 1.00 h 713 W/m 2.9 C 16.2 C 15.9 km/h (3 Bft)
02.05.2007 12:00 18.1 C 38 % 1007.1 hPa 0.0 l/m 8.4 km/h (2 Bft) O-SO 1.00 h 788 W/m 3.7 C 18.1 C 14.1 km/h (3 Bft)
02.05.2007 13:00 20.0 C 36 % 1007.1 hPa 0.0 l/m 5.7 km/h (1 Bft) O-SO 1.00 h 787 W/m 4.4 C 20.0 C 9.8 km/h (2 Bft)
02.05.2007 14:00 20.4 C 37 % 1007.5 hPa 0.0 l/m 4.7 km/h (1 Bft) W-SW 0.40 h 455 W/m 5.1 C 20.4 C 8.0 km/h (2 Bft)
02.05.2007 15:00 18.9 C 42 % 1008.4 hPa 0.0 l/m 13.0 km/h (3 Bft) W 0.38 h 443 W/m 5.6 C 18.9 C 20.3 km/h (4 Bft)
02.05.2007 16:00 19.0 C 41 % 1008.7 hPa 0.0 l/m 12.3 km/h (3 Bft) W 0.58 h 442 W/m 5.3 C 19.0 C 18.7 km/h (3 Bft)
02.05.2007 17:00 17.7 C 53 % 1008.7 hPa 0.0 l/m 14.5 km/h (3 Bft) W 0.05 h 190 W/m 7.9 C 17.7 C 21.8 km/h (4 Bft)
02.05.2007 18:00 15.5 C 59 % 1009.3 hPa 0.0 l/m 7.7 km/h (2 Bft) W 0.00 h 70 W/m 7.5 C 15.5 C 13.4 km/h (3 Bft)
02.05.2007 19:00 13.1 C 75 % 1009.8 hPa 0.4 l/m 4.1 km/h (1 Bft) W-NW 0.00 h 13 W/m 8.7 C 13.1 C 7.4 km/h (2 Bft)
02.05.2007 20:00 12.4 C 78 % 1010.2 hPa 0.0 l/m 2.4 km/h (1 Bft) W-SW 0.00 h 5 W/m 8.7 C 12.4 C 4.7 km/h (1 Bft)
02.05.2007 21:00 11.3 C 90 % 1011.2 hPa 4.0 l/m 5.7 km/h (1 Bft) N-NW 0.00 h 0 W/m 9.7 C 11.3 C 9.1 km/h (2 Bft)
02.05.2007 22:00 10.6 C 94 % 1011.3 hPa 0.0 l/m 2.7 km/h (1 Bft) O-SO 0.00 h 0 W/m 9.7 C 10.6 C 4.3 km/h (1 Bft)
02.05.2007 23:00 10.7 C 95 % 1011.1 hPa 0.2 l/m 4.3 km/h (1 Bft) N 0.00 h 0 W/m 9.9 C 10.7 C 7.2 km/h (2 Bft)
03.05.2007 00:00 9.8 C 96 % 1011.1 hPa 0.0 l/m 1.4 km/h (1 Bft) O-SO 0.00 h 0 W/m 9.1 C 9.8 C 2.7 km/h (1 Bft)
03.05.2007 01:00 8.6 C 97 % 1011.3 hPa 0.0 l/m 3.4 km/h (1 Bft) O-SO 0.00 h 0 W/m 8.3 C 8.4 C 4.6 km/h (1 Bft)
03.05.2007 02:00 8.6 C 97 % 1011.5 hPa 0.0 l/m 1.4 km/h (1 Bft) O 0.00 h 0 W/m 8.1 C 8.6 C 2.8 km/h (1 Bft)
03.05.2007 03:00 9.4 C 90 % 1011.5 hPa 0.0 l/m 1.6 km/h (1 Bft) NW 0.00 h 0 W/m 7.8 C 9.4 C 3.3 km/h (1 Bft)
03.05.2007 04:00 9.5 C 89 % 1011.8 hPa 0.0 l/m 0.5 km/h (0 Bft) N-NW 0.00 h 0 W/m 7.7 C 9.5 C 1.6 km/h (1 Bft)
03.05.2007 05:00 9.1 C 91 % 1012.0 hPa 0.0 l/m 0.4 km/h (0 Bft) O 0.00 h 0 W/m 7.7 C 9.1 C 1.0 km/h (0 Bft)
03.05.2007 06:00 8.5 C 93 % 1011.9 hPa 0.0 l/m 3.2 km/h (1 Bft) O-SO 0.00 h 18 W/m 7.4 C 8.4 C 4.9 km/h (1 Bft)
03.05.2007 07:00 9.2 C 91 % 1012.1 hPa 0.0 l/m 0.9 km/h (0 Bft) SO 0.37 h 98 W/m 7.7 C 9.2 C 2.1 km/h (1 Bft)
03.05.2007 08:00 11.0 C 87 % 1012.0 hPa 0.0 l/m 1.8 km/h (1 Bft) N-NW 0.95 h 282 W/m 9.0 C 11.0 C 3.3 km/h (1 Bft)
03.05.2007 09:00 12.3 C 81 % 1011.8 hPa 0.0 l/m 2.0 km/h (1 Bft) NW 1.00 h 449 W/m 9.0 C 12.3 C 3.9 km/h (1 Bft)
03.05.2007 10:00 14.1 C 75 % 1011.7 hPa 0.0 l/m 2.0 km/h (1 Bft) W-NW 0.88 h 573 W/m 9.6 C 14.1 C 3.8 km/h (1 Bft)
03.05.2007 11:00 15.5 C 65 % 1011.2 hPa 0.0 l/m 1.6 km/h (1 Bft) O 0.80 h 589 W/m 8.9 C 15.5 C 3.4 km/h (1 Bft)
03.05.2007 12:00 16.9 C 60 % 1010.8 hPa 0.0 l/m 2.5 km/h (1 Bft) W-NW 0.85 h 684 W/m 9.0 C 16.9 C 4.4 km/h (1 Bft)
03.05.2007 13:00 18.1 C 53 % 1010.1 hPa 0.0 l/m 2.4 km/h (1 Bft) W-SW 0.72 h 623 W/m 8.4 C 18.1 C 4.6 km/h (1 Bft)
03.05.2007 14:00 19.6 C 46 % 1009.4 hPa 0.0 l/m 3.2 km/h (1 Bft) SO 1.00 h 811 W/m 7.6 C 19.6 C 5.6 km/h (1 Bft)
03.05.2007 15:00 20.6 C 40 % 1008.9 hPa 0.0 l/m 4.0 km/h (1 Bft) W-NW 0.87 h 655 W/m 6.6 C 20.6 C 6.4 km/h (2 Bft)
03.05.2007 16:00 21.5 C 35 % 1008.3 hPa 0.0 l/m 4.0 km/h (1 Bft) W-NW 1.00 h 617 W/m 5.5 C 21.5 C 6.7 km/h (2 Bft)
03.05.2007 17:00 21.2 C 33 % 1007.7 hPa 0.0 l/m 2.3 km/h (1 Bft) SO 0.93 h 441 W/m 4.3 C 21.2 C 4.4 km/h (1 Bft)
03.05.2007 18:00 20.3 C 32 % 1007.4 hPa 0.0 l/m 3.4 km/h (1 Bft) O-SO 0.82 h 271 W/m 3.2 C 20.3 C 5.5 km/h (1 Bft)
03.05.2007 19:00 18.6 C 41 % 1007.2 hPa 0.0 l/m 5.2 km/h (1 Bft) O-SO 0.08 h 57 W/m 5.0 C 18.6 C 8.5 km/h (2 Bft)
03.05.2007 20:00 16.3 C 50 % 1008.1 hPa 0.0 l/m 3.6 km/h (1 Bft) NO 0.00 h 11 W/m 5.8 C 16.3 C 7.6 km/h (2 Bft)
03.05.2007 21:00 14.9 C 59 % 1008.7 hPa 0.0 l/m 3.0 km/h (1 Bft) N-NO 0.00 h 0 W/m 6.8 C 14.9 C 7.2 km/h (2 Bft)
03.05.2007 22:00 13.7 C 64 % 1008.7 hPa 0.0 l/m 4.5 km/h (1 Bft) N-NO 0.00 h 0 W/m 7.1 C 13.7 C 9.4 km/h (2 Bft)
03.05.2007 23:00 13.0 C 66 % 1008.4 hPa 0.0 l/m 2.6 km/h (1 Bft) N 0.00 h 0 W/m 6.7 C 13.0 C 5.5 km/h (1 Bft)
04.05.2007 00:00 11.2 C 74 % 1008.0 hPa 0.0 l/m 1.6 km/h (1 Bft) O-SO 0.00 h 0 W/m 6.7 C 11.2 C 2.7 km/h (1 Bft)
04.05.2007 01:00 10.4 C 77 % 1007.7 hPa 0.0 l/m 0.5 km/h (0 Bft) O-SO 0.00 h 0 W/m 6.6 C 10.4 C 1.5 km/h (1 Bft)
04.05.2007 02:00 9.4 C 83 % 1007.0 hPa 0.0 l/m 0.2 km/h (0 Bft) O-SO 0.00 h 0 W/m 6.7 C 9.4 C 1.1 km/h (0 Bft)
04.05.2007 03:00 8.3 C 87 % 1006.5 hPa 0.0 l/m 0.5 km/h (0 Bft) O-SO 0.00 h 0 W/m 6.2 C 8.3 C 1.4 km/h (1 Bft)
04.05.2007 04:00 7.6 C 89 % 1006.4 hPa 0.0 l/m 1.2 km/h (1 Bft) O-SO 0.00 h 0 W/m 5.9 C 7.5 C 2.5 km/h (1 Bft)
04.05.2007 05:00 7.0 C 91 % 1006.1 hPa 0.0 l/m 1.5 km/h (1 Bft) O-SO 0.00 h 0 W/m 5.5 C 6.9 C 2.4 km/h (1 Bft)
04.05.2007 06:00 6.7 C 91 % 1006.1 hPa 0.0 l/m 1.1 km/h (0 Bft) O 0.03 h 23 W/m 5.3 C 6.7 C 2.1 km/h (1 Bft)
04.05.2007 07:00 7.5 C 91 % 1005.8 hPa 0.0 l/m 0.1 km/h (0 Bft) O 0.00 h 63 W/m 6.1 C 7.5 C 0.5 km/h (0 Bft)
04.05.2007 08:00 9.2 C 87 % 1005.9 hPa 0.0 l/m 0.3 km/h (0 Bft) NO 0.15 h 197 W/m 7.1 C 9.2 C 1.0 km/h (0 Bft)
04.05.2007 09:00 11.0 C 78 % 1005.7 hPa 0.0 l/m 2.6 km/h (1 Bft) N-NW 0.07 h 288 W/m 7.4 C 11.0 C 4.7 km/h (1 Bft)
04.05.2007 10:00 12.9 C 74 % 1005.3 hPa 0.0 l/m 1.8 km/h (1 Bft) NW 0.00 h 319 W/m 8.3 C 12.9 C 3.6 km/h (1 Bft)
04.05.2007 11:00 14.6 C 69 % 1004.8 hPa 0.0 l/m 2.2 km/h (1 Bft) W-NW 0.00 h 366 W/m 8.9 C 14.6 C 3.9 km/h (1 Bft)
04.05.2007 12:00 15.9 C 66 % 1004.3 hPa 0.0 l/m 2.2 km/h (1 Bft) NW 0.00 h 338 W/m 9.5 C 15.9 C 3.8 km/h (1 Bft)
04.05.2007 13:00 16.4 C 66 % 1003.9 hPa 0.0 l/m 1.7 km/h (1 Bft) NW 0.00 h 296 W/m 9.9 C 16.4 C 3.2 km/h (1 Bft)
04.05.2007 14:00 18.0 C 61 % 1003.6 hPa 0.0 l/m 3.6 km/h (1 Bft) N-NW 0.23 h 466 W/m 10.3 C 18.0 C 6.0 km/h (2 Bft)
04.05.2007 15:00 18.3 C 60 % 1003.3 hPa 0.0 l/m 3.9 km/h (1 Bft) NW 0.08 h 305 W/m 10.3 C 18.3 C 6.1 km/h (2 Bft)
04.05.2007 16:00 18.2 C 59 % 1002.9 hPa 0.0 l/m 2.5 km/h (1 Bft) N-NW 0.00 h 202 W/m 10.0 C 18.2 C 4.3 km/h (1 Bft)
04.05.2007 17:00 18.4 C 60 % 1002.9 hPa 0.0 l/m 0.8 km/h (0 Bft) NW 0.00 h 166 W/m 10.6 C 18.4 C 2.0 km/h (1 Bft)
04.05.2007 18:00 17.5 C 61 % 1003.0 hPa 0.0 l/m 3.6 km/h (1 Bft) N-NW 0.00 h 64 W/m 9.8 C 17.5 C 6.4 km/h (2 Bft)
04.05.2007 19:00 16.8 C 64 % 1003.0 hPa 0.0 l/m 2.8 km/h (1 Bft) N-NW 0.00 h 43 W/m 10.0 C 16.8 C 4.7 km/h (1 Bft)
04.05.2007 20:00 15.8 C 62 % 1003.2 hPa 0.0 l/m 3.2 km/h (1 Bft) SO 0.00 h 17 W/m 8.6 C 15.8 C 5.0 km/h (1 Bft)
04.05.2007 21:00 14.0 C 76 % 1004.0 hPa 0.0 l/m 1.8 km/h (1 Bft) S-SO 0.00 h 0 W/m 9.8 C 14.0 C 4.9 km/h (1 Bft)
04.05.2007 22:00 12.8 C 86 % 1004.5 hPa 0.4 l/m 1.8 km/h (1 Bft) SO 0.00 h 0 W/m 10.5 C 12.8 C 3.7 km/h (1 Bft)
04.05.2007 23:00 12.1 C 93 % 1004.4 hPa 0.8 l/m 0.1 km/h (0 Bft) SO 0.00 h 0 W/m 11.1 C 12.1 C 0.4 km/h (0 Bft)
05.05.2007 00:00 11.9 C 95 % 1004.0 hPa 0.2 l/m 0.2 km/h (0 Bft) SO 0.00 h 0 W/m 11.1 C 11.9 C 0.7 km/h (0 Bft)
05.05.2007 01:00 11.8 C 96 % 1003.8 hPa 0.0 l/m 1.5 km/h (1 Bft) O-SO 0.00 h 0 W/m 11.2 C 11.8 C 2.4 km/h (1 Bft)
05.05.2007 02:00 11.9 C 97 % 1003.3 hPa 0.2 l/m 0.3 km/h (0 Bft) W-SW 0.00 h 0 W/m 11.5 C 11.9 C 0.9 km/h (0 Bft)
05.05.2007 03:00 11.8 C 98 % 1003.1 hPa 0.6 l/m 2.2 km/h (1 Bft) SO 0.00 h 0 W/m 11.5 C 11.8 C 3.9 km/h (1 Bft)
05.05.2007 04:00 11.7 C 97 % 1003.4 hPa 3.8 l/m 1.9 km/h (1 Bft) SO 0.00 h 0 W/m 11.2 C 11.7 C 3.8 km/h (1 Bft)
05.05.2007 05:00 11.5 C 98 % 1003.4 hPa 3.0 l/m 0.3 km/h (0 Bft) S-SO 0.00 h 0 W/m 11.2 C 11.5 C 1.2 km/h (1 Bft)
05.05.2007 06:00 11.5 C 98 % 1003.5 hPa 3.0 l/m 0.1 km/h (0 Bft) S-SO 0.00 h 5 W/m 11.2 C 11.5 C 0.3 km/h (0 Bft)
05.05.2007 07:00 11.6 C 99 % 1004.1 hPa 0.6 l/m 0.0 km/h (0 Bft) N 0.00 h 22 W/m 11.5 C 11.6 C 0.6 km/h (0 Bft)
05.05.2007 08:00 11.9 C 99 % 1004.4 hPa 1.4 l/m 0.0 km/h (0 Bft) N 0.00 h 36 W/m 11.7 C 11.9 C 0.0 km/h (0 Bft)
05.05.2007 09:00 12.1 C 99 % 1004.8 hPa 1.2 l/m 0.0 km/h (0 Bft) N 0.00 h 42 W/m 11.9 C 12.1 C 0.2 km/h (0 Bft)
05.05.2007 10:00 12.3 C 98 % 1005.2 hPa 0.2 l/m 0.0 km/h (0 Bft) N 0.00 h 37 W/m 12.0 C 12.3 C 0.0 km/h (0 Bft)
05.05.2007 11:00 12.4 C 98 % 1005.6 hPa 0.8 l/m 1.1 km/h (1 Bft) W-SW 0.00 h 94 W/m 12.2 C 12.4 C 2.4 km/h (1 Bft)
05.05.2007 12:00 13.1 C 97 % 1005.8 hPa 0.4 l/m 0.1 km/h (0 Bft) W 0.00 h 172 W/m 12.6 C 13.1 C 0.6 km/h (0 Bft)
05.05.2007 13:00 13.1 C 96 % 1006.0 hPa 1.4 l/m 1.1 km/h (1 Bft) W 0.00 h 93 W/m 12.5 C 13.1 C 2.2 km/h (1 Bft)
05.05.2007 14:00 13.2 C 98 % 1006.3 hPa 1.2 l/m 1.5 km/h (1 Bft) NW 0.00 h 150 W/m 12.9 C 13.2 C 3.1 km/h (1 Bft)
05.05.2007 15:00 13.2 C 96 % 1006.6 hPa 1.4 l/m 0.4 km/h (0 Bft) NW 0.00 h 93 W/m 12.5 C 13.2 C 1.6 km/h (1 Bft)
05.05.2007 16:00 12.8 C 90 % 1006.9 hPa 0.2 l/m 3.7 km/h (1 Bft) N 0.00 h 51 W/m 11.2 C 12.8 C 7.1 km/h (2 Bft)
05.05.2007 17:00 12.7 C 86 % 1007.3 hPa 0.0 l/m 4.4 km/h (1 Bft) N 0.00 h 62 W/m 10.5 C 12.7 C 8.2 km/h (2 Bft)
05.05.2007 18:00 12.7 C 88 % 1007.7 hPa 0.0 l/m 1.9 km/h (1 Bft) N 0.00 h 30 W/m 10.7 C 12.7 C 4.5 km/h (1 Bft)
05.05.2007 19:00 12.5 C 91 % 1008.2 hPa 0.0 l/m 0.2 km/h (0 Bft) NO 0.00 h 9 W/m 11.1 C 12.5 C 0.7 km/h (0 Bft)
05.05.2007 20:00 12.2 C 96 % 1008.9 hPa 0.2 l/m 0.4 km/h (0 Bft) W-SW 0.00 h 8 W/m 11.5 C 12.2 C 1.0 km/h (0 Bft)
05.05.2007 21:00 12.2 C 92 % 1009.8 hPa 0.0 l/m 1.7 km/h (1 Bft) N-NO 0.00 h 0 W/m 10.9 C 12.2 C 4.1 km/h (1 Bft)
05.05.2007 22:00 12.3 C 87 % 1010.9 hPa 0.0 l/m 2.8 km/h (1 Bft) NO 0.00 h 0 W/m 10.1 C 12.3 C 6.0 km/h (2 Bft)
05.05.2007 23:00 12.0 C 89 % 1011.5 hPa 0.2 l/m 1.7 km/h (1 Bft) O-NO 0.00 h 0 W/m 10.1 C 12.0 C 3.7 km/h (1 Bft)
06.05.2007 00:00 11.3 C 94 % 1012.1 hPa 0.6 l/m 0.9 km/h (0 Bft) O-SO 0.00 h 0 W/m 10.5 C 11.3 C 2.1 km/h (1 Bft)
06.05.2007 01:00 11.0 C 96 % 1012.6 hPa 0.0 l/m 1.0 km/h (0 Bft) SO 0.00 h 0 W/m 10.4 C 11.0 C 1.8 km/h (1 Bft)
06.05.2007 02:00 10.4 C 97 % 1012.9 hPa 0.0 l/m 1.0 km/h (0 Bft) SO 0.00 h 0 W/m 9.9 C 10.4 C 1.5 km/h (1 Bft)
06.05.2007 03:00 10.2 C 98 % 1013.1 hPa 0.0 l/m 0.6 km/h (0 Bft) SO 0.00 h 0 W/m 9.9 C 10.2 C 1.5 km/h (1 Bft)
06.05.2007 04:00 10.3 C 98 % 1013.2 hPa 0.0 l/m 0.9 km/h (0 Bft) SO 0.00 h 0 W/m 10.0 C 10.3 C 1.7 km/h (1 Bft)
06.05.2007 05:00 10.3 C 99 % 1013.5 hPa 0.0 l/m 0.2 km/h (0 Bft) O-SO 0.00 h 0 W/m 10.1 C 10.3 C 0.7 km/h (0 Bft)
06.05.2007 06:00 10.4 C 99 % 1013.7 hPa 0.2 l/m 0.4 km/h (0 Bft) O-SO 0.00 h 16 W/m 10.2 C 10.4 C 1.2 km/h (1 Bft)
06.05.2007 07:00 10.7 C 98 % 1014.2 hPa 0.0 l/m 1.3 km/h (1 Bft) S-SO 0.00 h 60 W/m 10.4 C 10.7 C 2.7 km/h (1 Bft)
06.05.2007 08:00 11.6 C 95 % 1014.9 hPa 0.0 l/m 0.4 km/h (0 Bft) S-SO 0.00 h 118 W/m 10.9 C 11.6 C 1.7 km/h (1 Bft)
06.05.2007 09:00 12.3 C 94 % 1015.2 hPa 0.0 l/m 0.2 km/h (0 Bft) S-SO 0.00 h 144 W/m 11.4 C 12.3 C 1.3 km/h (1 Bft)
06.05.2007 10:00 12.9 C 92 % 1015.6 hPa 0.0 l/m 0.4 km/h (0 Bft) S-SW 0.00 h 144 W/m 11.5 C 12.9 C 1.7 km/h (1 Bft)
06.05.2007 11:00 14.3 C 88 % 1015.8 hPa 0.0 l/m 0.9 km/h (0 Bft) S 0.27 h 420 W/m 12.4 C 14.3 C 2.7 km/h (1 Bft)
06.05.2007 12:00 16.2 C 79 % 1015.7 hPa 0.2 l/m 3.5 km/h (1 Bft) S-SO 0.52 h 593 W/m 12.6 C 16.2 C 7.0 km/h (2 Bft)
06.05.2007 13:00 17.7 C 73 % 1015.5 hPa 0.0 l/m 4.5 km/h (1 Bft) W-SW 0.55 h 632 W/m 12.8 C 17.7 C 8.1 km/h (2 Bft)
06.05.2007 14:00 17.7 C 68 % 1015.4 hPa 0.0 l/m 6.6 km/h (2 Bft) W 0.48 h 499 W/m 11.5 C 17.7 C 10.3 km/h (2 Bft)
06.05.2007 15:00 19.5 C 57 % 1015.2 hPa 0.0 l/m 6.4 km/h (2 Bft) W 0.75 h 604 W/m 10.6 C 19.5 C 9.7 km/h (2 Bft)
06.05.2007 16:00 18.0 C 58 % 1015.3 hPa 0.0 l/m 4.3 km/h (1 Bft) W-NW 0.08 h 222 W/m 9.6 C 18.0 C 6.8 km/h (2 Bft)
06.05.2007 17:00 17.9 C 62 % 1015.4 hPa 0.0 l/m 3.4 km/h (1 Bft) SW 0.23 h 214 W/m 10.5 C 17.9 C 6.8 km/h (2 Bft)
06.05.2007 18:00 16.7 C 64 % 1016.0 hPa 0.0 l/m 5.2 km/h (1 Bft) S-SO 0.12 h 106 W/m 9.9 C 16.7 C 9.9 km/h (2 Bft)
06.05.2007 19:00 16.5 C 66 % 1016.0 hPa 0.0 l/m 4.2 km/h (1 Bft) S-SO 0.78 h 148 W/m 10.0 C 16.5 C 8.3 km/h (2 Bft)
06.05.2007 20:00 15.1 C 70 % 1016.5 hPa 0.0 l/m 0.9 km/h (0 Bft) S 0.00 h 21 W/m 9.6 C 15.1 C 2.6 km/h (1 Bft)
06.05.2007 21:00 13.9 C 75 % 1017.1 hPa 0.0 l/m 3.3 km/h (1 Bft) SO 0.00 h 0 W/m 9.5 C 13.9 C 4.8 km/h (1 Bft)
06.05.2007 22:00 13.0 C 78 % 1017.8 hPa 0.0 l/m 0.8 km/h (0 Bft) SO 0.00 h 0 W/m 9.3 C 13.0 C 1.8 km/h (1 Bft)
06.05.2007 23:00 11.2 C 89 % 1018.3 hPa 0.0 l/m 0.4 km/h (0 Bft) SO 0.00 h 0 W/m 9.4 C 11.2 C 0.8 km/h (0 Bft)
Min-Datum _ 04.05.07 01.05.07 04.05.07 - 30.04.07 - - - 02.05.07 04.05.07 30.04.07
_ Min-Zeit 05:33 16:13 17:00 - 00:02 - - - 08:29 05:33 00:13
Minimum _ 6.3 C 26 % 1002.8 hPa - 0.0 km/h (0 Bft) - - - -0.2 C 5.4 C 0.0 km/h (0 Bft)
Max-Datum _ 30.04.07 05.05.07 06.05.07 02.05.07 02.05.07 - 30.04.07 06.05.07 06.05.07 30.04.07 02.05.07
_ Max-Zeit 15:57 06:43 23:45 21:04 17:37 - 06:24 13:06 13:31 15:57 17:37
Maximum _ 23.3 C 99 % 1018.6 hPa 4.0 l/m 25.0 km/h
W (4 Bft)
- 0.02 h 995 W/m 14.3 C 23.3 C 34.8 km/h
W-NW (5 Bft)
Durchschnitt _ 14.2 C 68 % 1009.2 hPa #26.8 l/m 3.2 km/h (1 Bft) O-SO #44:35 h 306 W/m 7.4 C 14.2 C 6.0 km/h (2 Bft)
© Kaiko 2007